sensor_id;sensor_type;location;lat;lon;timestamp;pressure;altitude;pressure_sealevel;temperature;humidity
10464;BME280;5279;42.048;24.638;2023-07-24T00:01:07;97587.53;;;23.01;65.93
10464;BME280;5279;42.048;24.638;2023-07-24T00:03:34;97586.78;;;22.94;66.55
10464;BME280;5279;42.048;24.638;2023-07-24T00:06:01;97595.09;;;22.92;67.93
10464;BME280;5279;42.048;24.638;2023-07-24T00:08:29;97576.25;;;22.85;68.24
10464;BME280;5279;42.048;24.638;2023-07-24T00:10:56;97582.75;;;22.78;69.43
10464;BME280;5279;42.048;24.638;2023-07-24T00:13:24;97570.00;;;22.60;69.82
10464;BME280;5279;42.048;24.638;2023-07-24T00:15:51;97582.56;;;22.48;71.11
10464;BME280;5279;42.048;24.638;2023-07-24T00:18:20;97580.38;;;22.63;71.24
10464;BME280;5279;42.048;24.638;2023-07-24T00:20:47;97583.25;;;22.68;70.32
10464;BME280;5279;42.048;24.638;2023-07-24T00:23:14;97584.56;;;22.59;70.66
10464;BME280;5279;42.048;24.638;2023-07-24T00:25:41;97593.88;;;22.63;72.02
10464;BME280;5279;42.048;24.638;2023-07-24T00:28:08;97580.81;;;22.60;71.51
10464;BME280;5279;42.048;24.638;2023-07-24T00:30:36;97588.13;;;22.53;71.61
10464;BME280;5279;42.048;24.638;2023-07-24T00:33:03;97579.09;;;22.41;72.25
10464;BME280;5279;42.048;24.638;2023-07-24T00:35:31;97578.34;;;22.34;72.67
10464;BME280;5279;42.048;24.638;2023-07-24T00:37:59;97580.59;;;22.37;72.69
10464;BME280;5279;42.048;24.638;2023-07-24T00:40:26;97587.47;;;22.33;73.41
10464;BME280;5279;42.048;24.638;2023-07-24T00:42:54;97585.72;;;22.14;74.68
10464;BME280;5279;42.048;24.638;2023-07-24T00:45:22;97572.78;;;21.98;75.75
10464;BME280;5279;42.048;24.638;2023-07-24T00:47:49;97582.06;;;22.02;76.24
10464;BME280;5279;42.048;24.638;2023-07-24T00:50:17;97574.41;;;21.99;76.21
10464;BME280;5279;42.048;24.638;2023-07-24T00:52:46;97581.19;;;22.08;76.19
10464;BME280;5279;42.048;24.638;2023-07-24T00:55:15;97579.59;;;22.00;76.66
10464;BME280;5279;42.048;24.638;2023-07-24T00:57:42;97579.22;;;21.97;76.91
10464;BME280;5279;42.048;24.638;2023-07-24T01:00:11;97581.28;;;21.95;77.08
10464;BME280;5279;42.048;24.638;2023-07-24T01:02:38;97586.72;;;21.82;78.51
10464;BME280;5279;42.048;24.638;2023-07-24T01:05:06;97572.28;;;21.69;79.17
10464;BME280;5279;42.048;24.638;2023-07-24T01:07:34;97577.03;;;21.67;79.52
10464;BME280;5279;42.048;24.638;2023-07-24T01:10:03;97580.97;;;21.71;79.98
10464;BME280;5279;42.048;24.638;2023-07-24T01:12:35;97570.16;;;21.78;79.53
10464;BME280;5279;42.048;24.638;2023-07-24T01:15:07;97573.44;;;21.80;79.09
10464;BME280;5279;42.048;24.638;2023-07-24T01:17:42;97575.63;;;21.58;80.86
10464;BME280;5279;42.048;24.638;2023-07-24T01:20:12;97578.56;;;21.57;81.71
10464;BME280;5279;42.048;24.638;2023-07-24T01:22:53;97577.75;;;21.50;81.87
10464;BME280;5279;42.048;24.638;2023-07-24T01:25:32;97575.25;;;21.55;80.86
10464;BME280;5279;42.048;24.638;2023-07-24T01:28:08;97579.38;;;21.57;81.10
10464;BME280;5279;42.048;24.638;2023-07-24T01:30:36;97582.31;;;21.49;81.61
10464;BME280;5279;42.048;24.638;2023-07-24T01:33:03;97581.31;;;21.37;82.46
10464;BME280;5279;42.048;24.638;2023-07-24T01:35:31;97586.09;;;21.42;81.90
10464;BME280;5279;42.048;24.638;2023-07-24T01:37:59;97583.81;;;21.39;82.20
10464;BME280;5279;42.048;24.638;2023-07-24T01:40:27;97583.25;;;21.23;84.07
10464;BME280;5279;42.048;24.638;2023-07-24T01:42:54;97582.41;;;21.23;82.44
10464;BME280;5279;42.048;24.638;2023-07-24T01:45:23;97589.41;;;21.37;81.52
10464;BME280;5279;42.048;24.638;2023-07-24T01:47:53;97594.34;;;21.53;80.45
10464;BME280;5279;42.048;24.638;2023-07-24T01:50:20;97589.38;;;21.50;80.72
10464;BME280;5279;42.048;24.638;2023-07-24T01:52:47;97594.75;;;21.50;80.43
10464;BME280;5279;42.048;24.638;2023-07-24T01:55:15;97591.47;;;21.42;81.37
10464;BME280;5279;42.048;24.638;2023-07-24T01:57:42;97589.22;;;21.32;81.70
10464;BME280;5279;42.048;24.638;2023-07-24T02:00:10;97583.44;;;21.22;82.44
10464;BME280;5279;42.048;24.638;2023-07-24T02:02:39;97594.84;;;21.24;82.44
10464;BME280;5279;42.048;24.638;2023-07-24T02:05:06;97592.34;;;21.22;82.43
10464;BME280;5279;42.048;24.638;2023-07-24T02:07:34;97584.53;;;21.14;83.25
10464;BME280;5279;42.048;24.638;2023-07-24T02:10:01;97579.91;;;21.28;82.25
10464;BME280;5279;42.048;24.638;2023-07-24T02:12:28;97571.81;;;21.28;81.73
10464;BME280;5279;42.048;24.638;2023-07-24T02:14:56;97589.84;;;21.34;81.07
10464;BME280;5279;42.048;24.638;2023-07-24T02:17:23;97578.69;;;21.17;82.26
10464;BME280;5279;42.048;24.638;2023-07-24T02:19:52;97578.28;;;21.07;83.12
10464;BME280;5279;42.048;24.638;2023-07-24T02:22:22;97574.56;;;21.02;83.57
10464;BME280;5279;42.048;24.638;2023-07-24T02:24:49;97583.25;;;21.04;84.13
10464;BME280;5279;42.048;24.638;2023-07-24T02:30:39;97577.50;;;20.74;87.24
10464;BME280;5279;42.048;24.638;2023-07-24T02:33:06;97581.44;;;20.71;87.37
10464;BME280;5279;42.048;24.638;2023-07-24T02:35:39;97588.28;;;20.67;89.15
10464;BME280;5279;42.048;24.638;2023-07-24T02:38:06;97587.44;;;20.73;88.24
10464;BME280;5279;42.048;24.638;2023-07-24T02:40:35;97571.94;;;20.69;87.64
10464;BME280;5279;42.048;24.638;2023-07-24T02:43:02;97584.75;;;20.87;86.09
10464;BME280;5279;42.048;24.638;2023-07-24T02:45:30;97590.53;;;20.97;86.34
10464;BME280;5279;42.048;24.638;2023-07-24T02:48:00;97597.38;;;20.99;86.42
10464;BME280;5279;42.048;24.638;2023-07-24T02:50:28;97599.81;;;21.07;84.76
10464;BME280;5279;42.048;24.638;2023-07-24T02:52:57;97586.19;;;21.09;83.97
10464;BME280;5279;42.048;24.638;2023-07-24T02:55:24;97608.94;;;21.26;85.78
10464;BME280;5279;42.048;24.638;2023-07-24T02:57:52;97595.88;;;21.23;84.10
10464;BME280;5279;42.048;24.638;2023-07-24T03:00:19;97586.59;;;21.12;84.59
10464;BME280;5279;42.048;24.638;2023-07-24T03:02:46;97588.63;;;21.04;89.27
10464;BME280;5279;42.048;24.638;2023-07-24T03:05:13;97586.59;;;20.99;91.79
10464;BME280;5279;42.048;24.638;2023-07-24T03:07:40;97600.25;;;20.98;93.26
10464;BME280;5279;42.048;24.638;2023-07-24T03:10:09;97598.81;;;20.89;94.85
10464;BME280;5279;42.048;24.638;2023-07-24T03:12:36;97596.34;;;20.94;94.26
10464;BME280;5279;42.048;24.638;2023-07-24T03:15:04;97597.78;;;21.03;88.59
10464;BME280;5279;42.048;24.638;2023-07-24T03:17:33;97597.78;;;21.03;88.74
10464;BME280;5279;42.048;24.638;2023-07-24T03:20:18;97601.50;;;21.02;89.21
10464;BME280;5279;42.048;24.638;2023-07-24T03:22:46;97590.56;;;20.77;90.64
10464;BME280;5279;42.048;24.638;2023-07-24T03:25:15;97598.44;;;20.79;90.67
10464;BME280;5279;42.048;24.638;2023-07-24T03:27:43;97599.66;;;20.83;92.25
10464;BME280;5279;42.048;24.638;2023-07-24T03:30:10;97593.25;;;20.84;92.86
10464;BME280;5279;42.048;24.638;2023-07-24T03:32:38;97597.81;;;20.77;92.51
10464;BME280;5279;42.048;24.638;2023-07-24T03:35:06;97597.59;;;20.85;91.82
10464;BME280;5279;42.048;24.638;2023-07-24T03:37:34;97598.63;;;20.84;90.38
10464;BME280;5279;42.048;24.638;2023-07-24T03:40:02;97593.25;;;20.77;94.54
10464;BME280;5279;42.048;24.638;2023-07-24T03:42:31;97583.72;;;20.88;92.31
10464;BME280;5279;42.048;24.638;2023-07-24T03:44:58;97573.78;;;20.82;92.88
10464;BME280;5279;42.048;24.638;2023-07-24T03:47:26;97597.38;;;20.93;93.62
10464;BME280;5279;42.048;24.638;2023-07-24T03:49:53;97590.91;;;21.07;94.41
10464;BME280;5279;42.048;24.638;2023-07-24T03:52:21;97589.91;;;21.14;90.31
10464;BME280;5279;42.048;24.638;2023-07-24T03:54:48;97590.91;;;21.20;88.97
10464;BME280;5279;42.048;24.638;2023-07-24T03:57:15;97589.06;;;21.14;90.81
10464;BME280;5279;42.048;24.638;2023-07-24T03:59:44;97583.25;;;21.17;92.01
10464;BME280;5279;42.048;24.638;2023-07-24T04:02:12;97596.88;;;21.35;89.64
10464;BME280;5279;42.048;24.638;2023-07-24T04:04:39;97584.41;;;21.47;85.35
10464;BME280;5279;42.048;24.638;2023-07-24T04:07:06;97589.91;;;21.65;85.57
10464;BME280;5279;42.048;24.638;2023-07-24T04:09:34;97587.59;;;21.75;83.91
10464;BME280;5279;42.048;24.638;2023-07-24T04:12:01;97592.13;;;21.82;84.79
10464;BME280;5279;42.048;24.638;2023-07-24T04:14:52;97582.66;;;21.66;87.30
10464;BME280;5279;42.048;24.638;2023-07-24T04:17:18;97593.03;;;21.62;88.83
10464;BME280;5279;42.048;24.638;2023-07-24T04:19:46;97600.59;;;21.41;91.40
10464;BME280;5279;42.048;24.638;2023-07-24T04:22:13;97610.91;;;21.57;90.82
10464;BME280;5279;42.048;24.638;2023-07-24T04:24:40;97613.34;;;21.71;90.32
10464;BME280;5279;42.048;24.638;2023-07-24T04:27:07;97604.75;;;21.88;88.23
10464;BME280;5279;42.048;24.638;2023-07-24T04:29:34;97613.03;;;21.99;88.94
10464;BME280;5279;42.048;24.638;2023-07-24T04:32:03;97611.94;;;22.07;86.03
10464;BME280;5279;42.048;24.638;2023-07-24T04:34:30;97618.09;;;22.20;86.22
10464;BME280;5279;42.048;24.638;2023-07-24T04:36:58;97618.69;;;21.85;88.81
10464;BME280;5279;42.048;24.638;2023-07-24T04:39:25;97617.94;;;22.09;87.32
10464;BME280;5279;42.048;24.638;2023-07-24T04:41:52;97616.47;;;22.13;86.10
10464;BME280;5279;42.048;24.638;2023-07-24T04:44:19;97615.19;;;22.22;86.13
10464;BME280;5279;42.048;24.638;2023-07-24T04:46:46;97618.22;;;22.32;86.07
10464;BME280;5279;42.048;24.638;2023-07-24T04:49:14;97626.69;;;22.36;87.08
10464;BME280;5279;42.048;24.638;2023-07-24T04:51:41;97622.09;;;22.43;89.57
10464;BME280;5279;42.048;24.638;2023-07-24T04:54:08;97625.69;;;22.61;89.29
10464;BME280;5279;42.048;24.638;2023-07-24T04:56:35;97617.09;;;22.71;85.77
10464;BME280;5279;42.048;24.638;2023-07-24T04:59:02;97631.03;;;22.93;83.78
10464;BME280;5279;42.048;24.638;2023-07-24T05:01:29;97633.25;;;23.02;84.31
10464;BME280;5279;42.048;24.638;2023-07-24T05:03:56;97626.56;;;23.05;85.72
10464;BME280;5279;42.048;24.638;2023-07-24T05:06:24;97623.50;;;23.19;85.17
10464;BME280;5279;42.048;24.638;2023-07-24T05:08:52;97633.00;;;23.28;86.62
10464;BME280;5279;42.048;24.638;2023-07-24T05:11:19;97614.56;;;23.44;87.52
10464;BME280;5279;42.048;24.638;2023-07-24T05:13:46;97621.53;;;23.51;89.76
10464;BME280;5279;42.048;24.638;2023-07-24T05:16:13;97621.22;;;23.59;88.84
10464;BME280;5279;42.048;24.638;2023-07-24T05:18:40;97626.50;;;23.54;93.23
10464;BME280;5279;42.048;24.638;2023-07-24T05:21:07;97634.75;;;23.59;95.76
10464;BME280;5279;42.048;24.638;2023-07-24T05:23:35;97627.63;;;23.65;98.53
10464;BME280;5279;42.048;24.638;2023-07-24T05:26:03;97624.53;;;23.79;96.07
10464;BME280;5279;42.048;24.638;2023-07-24T05:28:31;97629.56;;;24.06;95.40
10464;BME280;5279;42.048;24.638;2023-07-24T05:31:00;97624.72;;;24.26;92.13
10464;BME280;5279;42.048;24.638;2023-07-24T05:33:27;97633.47;;;24.28;91.65
10464;BME280;5279;42.048;24.638;2023-07-24T05:35:57;97637.81;;;24.29;91.06
10464;BME280;5279;42.048;24.638;2023-07-24T05:38:24;97638.81;;;24.46;91.16
10464;BME280;5279;42.048;24.638;2023-07-24T05:40:55;97624.34;;;24.52;89.98
10464;BME280;5279;42.048;24.638;2023-07-24T05:43:22;97635.47;;;24.62;88.53
10464;BME280;5279;42.048;24.638;2023-07-24T05:45:50;97631.19;;;24.66;87.73
10464;BME280;5279;42.048;24.638;2023-07-24T05:48:17;97642.13;;;24.89;88.28
10464;BME280;5279;42.048;24.638;2023-07-24T05:50:44;97639.88;;;24.98;85.36
10464;BME280;5279;42.048;24.638;2023-07-24T05:53:10;97635.50;;;25.09;83.64
10464;BME280;5279;42.048;24.638;2023-07-24T05:55:37;97620.19;;;25.02;82.78
10464;BME280;5279;42.048;24.638;2023-07-24T05:58:06;97637.53;;;25.25;81.50
10464;BME280;5279;42.048;24.638;2023-07-24T06:00:32;97626.09;;;25.34;79.92
10464;BME280;5279;42.048;24.638;2023-07-24T06:02:59;97621.59;;;25.40;77.46
10464;BME280;5279;42.048;24.638;2023-07-24T06:05:26;97618.97;;;25.45;77.14
10464;BME280;5279;42.048;24.638;2023-07-24T06:07:53;97622.03;;;25.60;75.15
10464;BME280;5279;42.048;24.638;2023-07-24T06:10:20;97615.78;;;25.71;72.09
10464;BME280;5279;42.048;24.638;2023-07-24T06:12:47;97617.97;;;25.86;70.83
10464;BME280;5279;42.048;24.638;2023-07-24T06:15:15;97618.56;;;25.88;70.73
10464;BME280;5279;42.048;24.638;2023-07-24T06:17:42;97608.97;;;25.97;70.16
10464;BME280;5279;42.048;24.638;2023-07-24T06:20:09;97611.03;;;26.06;70.11
10464;BME280;5279;42.048;24.638;2023-07-24T06:22:36;97602.50;;;26.15;71.04
10464;BME280;5279;42.048;24.638;2023-07-24T06:25:03;97608.50;;;26.28;68.88
10464;BME280;5279;42.048;24.638;2023-07-24T06:27:30;97609.00;;;26.42;70.21
10464;BME280;5279;42.048;24.638;2023-07-24T06:29:57;97603.25;;;26.55;71.39
10464;BME280;5279;42.048;24.638;2023-07-24T06:32:25;97595.19;;;26.60;71.18
10464;BME280;5279;42.048;24.638;2023-07-24T06:34:52;97598.06;;;26.70;69.99
10464;BME280;5279;42.048;24.638;2023-07-24T06:37:19;97598.84;;;26.82;69.14
10464;BME280;5279;42.048;24.638;2023-07-24T06:39:46;97597.53;;;27.01;67.47
10464;BME280;5279;42.048;24.638;2023-07-24T06:42:12;97591.59;;;27.04;64.46
10464;BME280;5279;42.048;24.638;2023-07-24T06:44:39;97598.66;;;27.05;67.08
10464;BME280;5279;42.048;24.638;2023-07-24T06:47:06;97594.63;;;27.08;65.49
10464;BME280;5279;42.048;24.638;2023-07-24T06:49:34;97597.81;;;27.22;64.82
10464;BME280;5279;42.048;24.638;2023-07-24T06:52:01;97613.28;;;27.38;63.91
10464;BME280;5279;42.048;24.638;2023-07-24T06:54:28;97604.81;;;27.51;63.45
10464;BME280;5279;42.048;24.638;2023-07-24T06:56:55;97602.31;;;27.71;64.36
10464;BME280;5279;42.048;24.638;2023-07-24T06:59:22;97595.88;;;27.77;61.53
10464;BME280;5279;42.048;24.638;2023-07-24T07:01:49;97605.88;;;27.93;60.85
10464;BME280;5279;42.048;24.638;2023-07-24T07:04:16;97591.84;;;28.06;60.43
10464;BME280;5279;42.048;24.638;2023-07-24T07:06:44;97594.03;;;28.04;60.29
10464;BME280;5279;42.048;24.638;2023-07-24T07:09:11;97601.63;;;28.02;59.82
10464;BME280;5279;42.048;24.638;2023-07-24T07:11:38;97595.03;;;27.98;58.40
10464;BME280;5279;42.048;24.638;2023-07-24T07:14:05;97590.13;;;28.22;59.16
10464;BME280;5279;42.048;24.638;2023-07-24T07:16:34;97586.06;;;28.25;59.51
10464;BME280;5279;42.048;24.638;2023-07-24T07:19:01;97592.81;;;28.49;59.38
10464;BME280;5279;42.048;24.638;2023-07-24T07:21:28;97586.66;;;28.58;59.30
10464;BME280;5279;42.048;24.638;2023-07-24T07:23:56;97599.34;;;28.69;58.38
10464;BME280;5279;42.048;24.638;2023-07-24T07:26:23;97594.78;;;28.80;57.63
10464;BME280;5279;42.048;24.638;2023-07-24T07:28:50;97589.97;;;28.97;57.37
10464;BME280;5279;42.048;24.638;2023-07-24T07:31:17;97575.38;;;29.18;56.39
10464;BME280;5279;42.048;24.638;2023-07-24T07:33:44;97586.81;;;29.15;55.73
10464;BME280;5279;42.048;24.638;2023-07-24T07:36:11;97590.22;;;29.27;56.06
10464;BME280;5279;42.048;24.638;2023-07-24T07:38:37;97589.41;;;29.27;55.36
10464;BME280;5279;42.048;24.638;2023-07-24T07:41:06;97589.75;;;29.41;55.09
10464;BME280;5279;42.048;24.638;2023-07-24T07:43:33;97582.63;;;29.40;54.49
10464;BME280;5279;42.048;24.638;2023-07-24T07:46:01;97585.50;;;29.65;53.03
10464;BME280;5279;42.048;24.638;2023-07-24T07:48:28;97571.22;;;29.48;52.62
10464;BME280;5279;42.048;24.638;2023-07-24T07:50:55;97562.81;;;29.64;52.16
10464;BME280;5279;42.048;24.638;2023-07-24T07:53:22;97569.41;;;29.73;53.09
10464;BME280;5279;42.048;24.638;2023-07-24T07:55:55;97565.38;;;29.86;52.04
10464;BME280;5279;42.048;24.638;2023-07-24T07:58:24;97562.06;;;29.79;50.74
10464;BME280;5279;42.048;24.638;2023-07-24T08:00:51;97568.69;;;29.98;51.76
10464;BME280;5279;42.048;24.638;2023-07-24T08:03:18;97567.13;;;30.17;51.08
10464;BME280;5279;42.048;24.638;2023-07-24T08:05:45;97571.53;;;30.33;50.24
10464;BME280;5279;42.048;24.638;2023-07-24T08:08:12;97557.06;;;30.53;49.87
10464;BME280;5279;42.048;24.638;2023-07-24T08:10:39;97554.59;;;30.57;49.15
10464;BME280;5279;42.048;24.638;2023-07-24T08:13:06;97554.06;;;30.70;51.17
10464;BME280;5279;42.048;24.638;2023-07-24T08:15:35;97549.41;;;30.80;50.53
10464;BME280;5279;42.048;24.638;2023-07-24T08:18:03;97558.69;;;30.89;49.12
10464;BME280;5279;42.048;24.638;2023-07-24T08:20:30;97559.00;;;31.03;48.42
10464;BME280;5279;42.048;24.638;2023-07-24T08:22:57;97559.75;;;31.34;48.26
10464;BME280;5279;42.048;24.638;2023-07-24T08:25:24;97556.16;;;31.38;48.13
10464;BME280;5279;42.048;24.638;2023-07-24T08:27:51;97559.97;;;31.42;47.96
10464;BME280;5279;42.048;24.638;2023-07-24T08:30:18;97554.50;;;31.37;48.20
10464;BME280;5279;42.048;24.638;2023-07-24T08:32:46;97560.22;;;31.61;46.04
10464;BME280;5279;42.048;24.638;2023-07-24T08:35:15;97557.16;;;31.68;46.54
10464;BME280;5279;42.048;24.638;2023-07-24T08:37:43;97551.13;;;31.71;47.23
10464;BME280;5279;42.048;24.638;2023-07-24T08:40:31;97543.34;;;31.93;46.51
10464;BME280;5279;42.048;24.638;2023-07-24T08:42:58;97543.84;;;32.05;45.92
10464;BME280;5279;42.048;24.638;2023-07-24T08:45:25;97543.06;;;31.94;47.14
10464;BME280;5279;42.048;24.638;2023-07-24T08:47:54;97545.72;;;32.15;45.54
10464;BME280;5279;42.048;24.638;2023-07-24T08:50:22;97541.06;;;32.15;44.88
10464;BME280;5279;42.048;24.638;2023-07-24T08:52:50;97532.47;;;32.27;44.92
10464;BME280;5279;42.048;24.638;2023-07-24T08:55:17;97540.78;;;32.51;43.82
10464;BME280;5279;42.048;24.638;2023-07-24T08:57:46;97530.34;;;32.58;43.80
10464;BME280;5279;42.048;24.638;2023-07-24T09:00:14;97532.94;;;32.73;43.67
10464;BME280;5279;42.048;24.638;2023-07-24T09:02:41;97537.09;;;32.99;43.54
10464;BME280;5279;42.048;24.638;2023-07-24T09:05:09;97532.63;;;33.08;42.91
10464;BME280;5279;42.048;24.638;2023-07-24T09:07:37;97532.88;;;33.12;43.02
10464;BME280;5279;42.048;24.638;2023-07-24T09:10:05;97534.69;;;33.21;42.78
10464;BME280;5279;42.048;24.638;2023-07-24T09:12:32;97532.00;;;33.16;43.54
10464;BME280;5279;42.048;24.638;2023-07-24T09:15:02;97508.31;;;33.20;42.64
10464;BME280;5279;42.048;24.638;2023-07-24T09:17:29;97524.19;;;33.28;42.43
10464;BME280;5279;42.048;24.638;2023-07-24T09:19:57;97522.94;;;33.39;41.78
10464;BME280;5279;42.048;24.638;2023-07-24T09:22:25;97518.44;;;33.48;42.36
10464;BME280;5279;42.048;24.638;2023-07-24T09:24:54;97506.28;;;33.54;41.47
10464;BME280;5279;42.048;24.638;2023-07-24T09:27:24;97517.59;;;33.72;40.41
10464;BME280;5279;42.048;24.638;2023-07-24T09:29:52;97508.50;;;33.76;41.39
10464;BME280;5279;42.048;24.638;2023-07-24T09:32:19;97507.53;;;33.86;41.45
10464;BME280;5279;42.048;24.638;2023-07-24T09:34:47;97502.34;;;34.03;40.69
10464;BME280;5279;42.048;24.638;2023-07-24T09:37:30;97499.97;;;34.15;41.31
10464;BME280;5279;42.048;24.638;2023-07-24T09:39:57;97498.78;;;34.21;40.34
10464;BME280;5279;42.048;24.638;2023-07-24T09:42:30;97482.72;;;34.28;40.03
10464;BME280;5279;42.048;24.638;2023-07-24T09:44:58;97491.72;;;34.34;39.96
10464;BME280;5279;42.048;24.638;2023-07-24T09:47:25;97487.03;;;34.34;40.46
10464;BME280;5279;42.048;24.638;2023-07-24T09:49:52;97483.41;;;34.52;40.33
10464;BME280;5279;42.048;24.638;2023-07-24T09:52:20;97476.28;;;34.51;39.33
10464;BME280;5279;42.048;24.638;2023-07-24T09:54:55;97465.88;;;34.48;39.45
10464;BME280;5279;42.048;24.638;2023-07-24T09:57:23;97464.91;;;34.72;39.68
10464;BME280;5279;42.048;24.638;2023-07-24T09:59:51;97462.31;;;34.94;39.98
10464;BME280;5279;42.048;24.638;2023-07-24T10:02:19;97460.06;;;34.82;38.75
10464;BME280;5279;42.048;24.638;2023-07-24T10:04:46;97451.72;;;35.01;38.51
10464;BME280;5279;42.048;24.638;2023-07-24T10:07:14;97452.31;;;34.98;39.06
10464;BME280;5279;42.048;24.638;2023-07-24T10:09:43;97457.50;;;34.99;38.34
10464;BME280;5279;42.048;24.638;2023-07-24T10:12:11;97455.44;;;35.10;37.93
10464;BME280;5279;42.048;24.638;2023-07-24T10:14:38;97450.94;;;35.14;38.74
10464;BME280;5279;42.048;24.638;2023-07-24T10:17:05;97435.81;;;34.98;39.14
10464;BME280;5279;42.048;24.638;2023-07-24T10:19:36;97426.22;;;35.09;38.60
10464;BME280;5279;42.048;24.638;2023-07-24T10:22:03;97426.75;;;35.25;37.62
10464;BME280;5279;42.048;24.638;2023-07-24T10:24:30;97428.97;;;35.36;37.69
10464;BME280;5279;42.048;24.638;2023-07-24T10:26:57;97425.81;;;35.43;39.77
10464;BME280;5279;42.048;24.638;2023-07-24T10:29:25;97436.22;;;35.59;35.93
10464;BME280;5279;42.048;24.638;2023-07-24T10:31:53;97418.44;;;35.52;37.46
10464;BME280;5279;42.048;24.638;2023-07-24T10:34:20;97426.38;;;35.81;35.68
10464;BME280;5279;42.048;24.638;2023-07-24T10:36:47;97415.34;;;36.03;35.72
10464;BME280;5279;42.048;24.638;2023-07-24T10:39:15;97418.91;;;36.17;35.10
10464;BME280;5279;42.048;24.638;2023-07-24T10:41:44;97402.94;;;36.36;35.71
10464;BME280;5279;42.048;24.638;2023-07-24T10:44:12;97392.22;;;36.35;33.57
10464;BME280;5279;42.048;24.638;2023-07-24T10:46:41;97389.66;;;36.38;33.70
10464;BME280;5279;42.048;24.638;2023-07-24T10:49:09;97395.84;;;36.44;34.02
10464;BME280;5279;42.048;24.638;2023-07-24T10:51:36;97385.63;;;36.44;34.03
10464;BME280;5279;42.048;24.638;2023-07-24T10:54:04;97386.56;;;36.62;34.51
10464;BME280;5279;42.048;24.638;2023-07-24T10:56:31;97382.09;;;36.83;33.33
10464;BME280;5279;42.048;24.638;2023-07-24T10:59:02;97379.72;;;36.59;33.37
10464;BME280;5279;42.048;24.638;2023-07-24T11:01:31;97383.19;;;36.74;32.91
10464;BME280;5279;42.048;24.638;2023-07-24T11:03:59;97381.09;;;36.79;32.88
10464;BME280;5279;42.048;24.638;2023-07-24T11:06:26;97372.16;;;36.74;32.47
10464;BME280;5279;42.048;24.638;2023-07-24T11:08:55;97374.84;;;36.96;32.24
10464;BME280;5279;42.048;24.638;2023-07-24T11:11:27;97376.84;;;37.04;30.14
10464;BME280;5279;42.048;24.638;2023-07-24T11:13:54;97363.91;;;36.91;29.89
10464;BME280;5279;42.048;24.638;2023-07-24T11:16:22;97359.81;;;36.80;30.20
10464;BME280;5279;42.048;24.638;2023-07-24T11:18:50;97354.63;;;36.78;30.37
10464;BME280;5279;42.048;24.638;2023-07-24T11:21:19;97342.97;;;36.90;30.00
10464;BME280;5279;42.048;24.638;2023-07-24T11:23:48;97355.38;;;37.01;29.72
10464;BME280;5279;42.048;24.638;2023-07-24T11:26:15;97350.38;;;37.11;29.42
10464;BME280;5279;42.048;24.638;2023-07-24T11:28:42;97351.50;;;37.02;29.25
10464;BME280;5279;42.048;24.638;2023-07-24T11:31:09;97347.81;;;37.32;29.17
10464;BME280;5279;42.048;24.638;2023-07-24T11:33:37;97344.53;;;37.30;29.46
10464;BME280;5279;42.048;24.638;2023-07-24T11:36:04;97343.25;;;37.36;28.47
10464;BME280;5279;42.048;24.638;2023-07-24T11:38:32;97335.59;;;37.33;28.82
10464;BME280;5279;42.048;24.638;2023-07-24T11:41:01;97336.94;;;37.44;27.95
10464;BME280;5279;42.048;24.638;2023-07-24T11:43:28;97333.38;;;37.52;28.38
10464;BME280;5279;42.048;24.638;2023-07-24T11:45:54;97327.34;;;37.76;27.83
10464;BME280;5279;42.048;24.638;2023-07-24T11:48:23;97337.28;;;37.68;28.50
10464;BME280;5279;42.048;24.638;2023-07-24T11:50:52;97333.19;;;37.49;28.23
10464;BME280;5279;42.048;24.638;2023-07-24T11:53:21;97327.63;;;37.40;28.24
10464;BME280;5279;42.048;24.638;2023-07-24T11:55:50;97333.50;;;37.39;27.44
10464;BME280;5279;42.048;24.638;2023-07-24T11:58:18;97332.25;;;37.45;28.09
10464;BME280;5279;42.048;24.638;2023-07-24T12:00:46;97332.72;;;37.72;28.17
10464;BME280;5279;42.048;24.638;2023-07-24T12:03:13;97327.19;;;37.72;28.23
10464;BME280;5279;42.048;24.638;2023-07-24T12:05:41;97327.19;;;37.72;28.88
10464;BME280;5279;42.048;24.638;2023-07-24T12:08:09;97326.38;;;37.72;28.70
10464;BME280;5279;42.048;24.638;2023-07-24T12:10:37;97312.22;;;37.56;27.64
10464;BME280;5279;42.048;24.638;2023-07-24T12:13:05;97308.97;;;37.71;28.57
10464;BME280;5279;42.048;24.638;2023-07-24T12:15:33;97311.59;;;37.59;27.73
10464;BME280;5279;42.048;24.638;2023-07-24T12:18:01;97298.56;;;37.68;27.81
10464;BME280;5279;42.048;24.638;2023-07-24T12:20:28;97308.78;;;37.76;26.98
10464;BME280;5279;42.048;24.638;2023-07-24T12:22:55;97303.91;;;37.73;27.19
10464;BME280;5279;42.048;24.638;2023-07-24T12:25:22;97301.94;;;37.83;27.45
10464;BME280;5279;42.048;24.638;2023-07-24T12:27:49;97295.28;;;37.84;27.38
10464;BME280;5279;42.048;24.638;2023-07-24T12:30:18;97287.31;;;37.82;27.34
10464;BME280;5279;42.048;24.638;2023-07-24T12:32:45;97287.34;;;37.91;27.24
10464;BME280;5279;42.048;24.638;2023-07-24T12:35:11;97284.88;;;37.98;28.04
10464;BME280;5279;42.048;24.638;2023-07-24T12:37:38;97292.69;;;37.96;27.59
10464;BME280;5279;42.048;24.638;2023-07-24T12:40:07;97293.31;;;38.10;26.13
10464;BME280;5279;42.048;24.638;2023-07-24T12:42:34;97284.06;;;38.06;25.82
10464;BME280;5279;42.048;24.638;2023-07-24T12:45:01;97279.66;;;37.88;25.75
10464;BME280;5279;42.048;24.638;2023-07-24T12:47:31;97284.22;;;37.84;26.27
10464;BME280;5279;42.048;24.638;2023-07-24T12:49:58;97284.06;;;37.71;25.99
10464;BME280;5279;42.048;24.638;2023-07-24T12:52:25;97274.16;;;37.70;26.17
10464;BME280;5279;42.048;24.638;2023-07-24T12:54:53;97268.75;;;37.83;26.07
10464;BME280;5279;42.048;24.638;2023-07-24T12:57:20;97265.38;;;37.68;26.80
10464;BME280;5279;42.048;24.638;2023-07-24T12:59:46;97250.56;;;37.82;26.31
10464;BME280;5279;42.048;24.638;2023-07-24T13:02:13;97268.09;;;37.94;25.88
10464;BME280;5279;42.048;24.638;2023-07-24T13:04:42;97268.56;;;38.05;26.40
10464;BME280;5279;42.048;24.638;2023-07-24T13:07:09;97261.91;;;37.89;25.82